KRBO

Nueces County Airport

Robstown, Texas, USA
METAR KRBO 212335Z AUTO 09008KT 10SM CLR 28/25 A2985 RMK AO2 T02750252
Observed Flight Rules
Jun-21 @ 23:35 UTC (17 minutes ago) Visual Flight Rules
Wind Visibility Clouds
90° at 8 knots 10 miles
  • Clear skies
Temperatures Readings
Current 28°C / 82°F
Dewpoint 25°C / 77°F
Humidity 84%
Altimeter 29.85" Hg
Pressure 1011 hPa
Elevation 24
METAR KRBO 212335Z AUTO 09008KT 10SM CLR 28/25 A2985 RMK AO2 T02750252
Observed Flight Rules
Jun-21 @ 23:35 UTC
(17 minutes ago)
VFR
Wind Visibility
90° at 8 knots 10 miles
Clouds
  • Clear skies
Temperature Dewpoint
28°C / 82°F 25°C / 77°F
Humidity Altimeter Pressure
84% 29.85" Hg 1011 hPa